sensor_id;sensor_type;location;lat;lon;timestamp;pressure;altitude;pressure_sealevel;temperature;humidity
10006;BME280;5042;42.626;23.382;2023-04-26T00:02:15;93476.97;;;9.77;100.00
10006;BME280;5042;42.626;23.382;2023-04-26T00:04:43;93468.50;;;9.75;100.00
10006;BME280;5042;42.626;23.382;2023-04-26T00:07:10;93469.31;;;9.69;100.00
10006;BME280;5042;42.626;23.382;2023-04-26T00:09:40;93453.03;;;9.61;100.00
10006;BME280;5042;42.626;23.382;2023-04-26T00:12:08;93455.25;;;9.64;100.00
10006;BME280;5042;42.626;23.382;2023-04-26T00:14:37;93451.25;;;9.48;100.00
10006;BME280;5042;42.626;23.382;2023-04-26T00:17:04;93452.06;;;9.42;100.00
10006;BME280;5042;42.626;23.382;2023-04-26T00:19:31;93448.28;;;9.38;100.00
10006;BME280;5042;42.626;23.382;2023-04-26T00:21:58;93445.66;;;9.38;100.00
10006;BME280;5042;42.626;23.382;2023-04-26T00:24:25;93436.41;;;9.35;100.00
10006;BME280;5042;42.626;23.382;2023-04-26T00:26:52;93441.22;;;9.38;100.00
10006;BME280;5042;42.626;23.382;2023-04-26T00:29:19;93442.81;;;9.46;100.00
10006;BME280;5042;42.626;23.382;2023-04-26T00:31:47;93434.16;;;9.45;100.00
10006;BME280;5042;42.626;23.382;2023-04-26T00:34:14;93406.25;;;9.26;100.00
10006;BME280;5042;42.626;23.382;2023-04-26T00:36:41;93423.72;;;9.39;100.00
10006;BME280;5042;42.626;23.382;2023-04-26T00:39:08;93429.78;;;9.32;100.00
10006;BME280;5042;42.626;23.382;2023-04-26T00:41:35;93425.56;;;9.25;100.00
10006;BME280;5042;42.626;23.382;2023-04-26T00:44:02;93426.34;;;9.25;100.00
10006;BME280;5042;42.626;23.382;2023-04-26T00:46:28;93432.00;;;9.16;100.00
10006;BME280;5042;42.626;23.382;2023-04-26T00:48:57;93422.38;;;9.03;100.00
10006;BME280;5042;42.626;23.382;2023-04-26T00:51:23;93428.03;;;9.06;100.00
10006;BME280;5042;42.626;23.382;2023-04-26T00:53:51;93421.97;;;9.06;100.00
10006;BME280;5042;42.626;23.382;2023-04-26T00:56:19;93428.41;;;9.17;100.00
10006;BME280;5042;42.626;23.382;2023-04-26T00:58:46;93422.34;;;9.23;100.00
10006;BME280;5042;42.626;23.382;2023-04-26T01:01:13;93423.53;;;9.20;100.00
10006;BME280;5042;42.626;23.382;2023-04-26T01:03:40;93426.00;;;8.88;100.00
10006;BME280;5042;42.626;23.382;2023-04-26T01:06:08;93429.22;;;8.84;100.00
10006;BME280;5042;42.626;23.382;2023-04-26T01:08:35;93424.59;;;8.79;100.00
10006;BME280;5042;42.626;23.382;2023-04-26T01:11:03;93420.97;;;8.80;100.00
10006;BME280;5042;42.626;23.382;2023-04-26T01:13:31;93440.06;;;8.61;100.00
10006;BME280;5042;42.626;23.382;2023-04-26T01:15:57;93392.97;;;8.21;100.00
10006;BME280;5042;42.626;23.382;2023-04-26T01:18:25;93432.84;;;8.49;100.00
10006;BME280;5042;42.626;23.382;2023-04-26T01:20:52;93428.75;;;8.27;100.00
10006;BME280;5042;42.626;23.382;2023-04-26T01:23:22;93413.81;;;8.01;100.00
10006;BME280;5042;42.626;23.382;2023-04-26T01:25:49;93412.16;;;7.80;100.00
10006;BME280;5042;42.626;23.382;2023-04-26T01:28:16;93408.56;;;7.81;100.00
10006;BME280;5042;42.626;23.382;2023-04-26T01:30:42;93413.16;;;7.79;100.00
10006;BME280;5042;42.626;23.382;2023-04-26T01:33:09;93404.97;;;7.89;100.00
10006;BME280;5042;42.626;23.382;2023-04-26T01:35:36;93413.81;;;7.94;100.00
10006;BME280;5042;42.626;23.382;2023-04-26T01:38:03;93409.00;;;7.91;100.00
10006;BME280;5042;42.626;23.382;2023-04-26T01:40:31;93416.41;;;7.94;100.00
10006;BME280;5042;42.626;23.382;2023-04-26T01:42:57;93428.06;;;7.92;100.00
10006;BME280;5042;42.626;23.382;2023-04-26T01:45:24;93421.66;;;8.01;100.00
10006;BME280;5042;42.626;23.382;2023-04-26T01:47:51;93425.88;;;8.02;100.00
10006;BME280;5042;42.626;23.382;2023-04-26T01:50:18;93427.13;;;8.13;100.00
10006;BME280;5042;42.626;23.382;2023-04-26T01:52:45;93422.31;;;8.23;100.00
10006;BME280;5042;42.626;23.382;2023-04-26T01:55:12;93421.69;;;8.21;100.00
10006;BME280;5042;42.626;23.382;2023-04-26T01:57:40;93427.00;;;8.41;100.00
10006;BME280;5042;42.626;23.382;2023-04-26T02:00:08;93415.91;;;8.39;100.00
10006;BME280;5042;42.626;23.382;2023-04-26T02:02:35;93408.06;;;8.39;100.00
10006;BME280;5042;42.626;23.382;2023-04-26T02:05:02;93414.56;;;8.43;100.00
10006;BME280;5042;42.626;23.382;2023-04-26T02:07:29;93413.50;;;8.37;100.00
10006;BME280;5042;42.626;23.382;2023-04-26T02:09:56;93410.69;;;8.32;100.00
10006;BME280;5042;42.626;23.382;2023-04-26T02:12:23;93414.28;;;8.24;100.00
10006;BME280;5042;42.626;23.382;2023-04-26T02:14:51;93415.72;;;8.34;100.00
10006;BME280;5042;42.626;23.382;2023-04-26T02:17:17;93415.09;;;8.32;100.00
10006;BME280;5042;42.626;23.382;2023-04-26T02:19:45;93402.47;;;8.35;100.00
10006;BME280;5042;42.626;23.382;2023-04-26T02:22:12;93393.78;;;8.28;100.00
10006;BME280;5042;42.626;23.382;2023-04-26T02:24:39;93400.63;;;8.29;100.00
10006;BME280;5042;42.626;23.382;2023-04-26T02:27:06;93404.22;;;8.15;100.00
10006;BME280;5042;42.626;23.382;2023-04-26T02:29:32;93404.63;;;8.12;100.00
10006;BME280;5042;42.626;23.382;2023-04-26T02:32:03;93420.28;;;8.18;100.00
10006;BME280;5042;42.626;23.382;2023-04-26T02:34:29;93412.25;;;8.20;100.00
10006;BME280;5042;42.626;23.382;2023-04-26T02:36:57;93413.47;;;8.24;100.00
10006;BME280;5042;42.626;23.382;2023-04-26T02:39:23;93414.31;;;8.31;100.00
10006;BME280;5042;42.626;23.382;2023-04-26T02:41:51;93408.25;;;8.37;100.00
10006;BME280;5042;42.626;23.382;2023-04-26T02:44:17;93399.06;;;8.41;100.00
10006;BME280;5042;42.626;23.382;2023-04-26T02:46:44;93399.81;;;8.22;100.00
10006;BME280;5042;42.626;23.382;2023-04-26T02:49:12;93394.72;;;7.87;100.00
10006;BME280;5042;42.626;23.382;2023-04-26T02:51:40;93389.88;;;7.77;100.00
10006;BME280;5042;42.626;23.382;2023-04-26T02:54:06;93388.66;;;7.73;100.00
10006;BME280;5042;42.626;23.382;2023-04-26T02:56:33;93389.63;;;7.65;100.00
10006;BME280;5042;42.626;23.382;2023-04-26T02:59:00;93385.31;;;7.38;100.00
10006;BME280;5042;42.626;23.382;2023-04-26T03:01:27;93388.09;;;7.30;100.00
10006;BME280;5042;42.626;23.382;2023-04-26T03:03:53;93386.72;;;7.34;100.00
10006;BME280;5042;42.626;23.382;2023-04-26T03:06:21;93396.78;;;7.43;100.00
10006;BME280;5042;42.626;23.382;2023-04-26T03:08:48;93384.34;;;7.46;100.00
10006;BME280;5042;42.626;23.382;2023-04-26T03:11:15;93389.81;;;7.57;100.00
10006;BME280;5042;42.626;23.382;2023-04-26T03:13:42;93383.59;;;7.58;100.00
10006;BME280;5042;42.626;23.382;2023-04-26T03:16:08;93382.81;;;7.64;100.00
10006;BME280;5042;42.626;23.382;2023-04-26T03:18:35;93382.41;;;7.68;100.00
10006;BME280;5042;42.626;23.382;2023-04-26T03:21:02;93380.44;;;7.76;100.00
10006;BME280;5042;42.626;23.382;2023-04-26T03:23:31;93381.28;;;7.83;100.00
10006;BME280;5042;42.626;23.382;2023-04-26T03:25:58;93378.47;;;7.78;100.00
10006;BME280;5042;42.626;23.382;2023-04-26T03:28:25;93390.50;;;7.86;100.00
10006;BME280;5042;42.626;23.382;2023-04-26T03:30:51;93391.34;;;7.93;100.00
10006;BME280;5042;42.626;23.382;2023-04-26T03:33:18;93391.97;;;8.08;100.00
10006;BME280;5042;42.626;23.382;2023-04-26T03:35:45;93395.38;;;8.16;100.00
10006;BME280;5042;42.626;23.382;2023-04-26T03:38:12;93397.22;;;8.22;100.00
10006;BME280;5042;42.626;23.382;2023-04-26T03:40:40;93391.19;;;8.28;100.00
10006;BME280;5042;42.626;23.382;2023-04-26T03:43:08;93397.63;;;8.39;100.00
10006;BME280;5042;42.626;23.382;2023-04-26T03:45:35;93369.72;;;8.26;100.00
10006;BME280;5042;42.626;23.382;2023-04-26T03:48:02;93393.03;;;8.61;100.00
10006;BME280;5042;42.626;23.382;2023-04-26T03:50:28;93394.25;;;8.72;100.00
10006;BME280;5042;42.626;23.382;2023-04-26T03:52:55;93396.47;;;8.81;100.00
10006;BME280;5042;42.626;23.382;2023-04-26T03:55:22;93393.84;;;8.95;100.00
10006;BME280;5042;42.626;23.382;2023-04-26T03:57:50;93395.03;;;9.05;100.00
10006;BME280;5042;42.626;23.382;2023-04-26T04:00:18;93392.78;;;9.16;100.00
10006;BME280;5042;42.626;23.382;2023-04-26T04:02:45;93391.97;;;9.28;100.00
10006;BME280;5042;42.626;23.382;2023-04-26T04:05:12;93389.38;;;9.15;100.00
10006;BME280;5042;42.626;23.382;2023-04-26T04:07:39;93404.25;;;9.28;100.00
10006;BME280;5042;42.626;23.382;2023-04-26T04:10:06;93410.03;;;9.37;100.00
10006;BME280;5042;42.626;23.382;2023-04-26T04:12:34;93416.06;;;9.44;100.00
10006;BME280;5042;42.626;23.382;2023-04-26T04:15:03;93416.22;;;9.49;100.00
10006;BME280;5042;42.626;23.382;2023-04-26T04:17:30;93424.66;;;9.58;100.00
10006;BME280;5042;42.626;23.382;2023-04-26T04:19:57;93421.47;;;9.49;100.00
10006;BME280;5042;42.626;23.382;2023-04-26T04:22:24;93415.50;;;9.28;100.00
10006;BME280;5042;42.626;23.382;2023-04-26T04:24:50;93420.13;;;9.13;100.00
10006;BME280;5042;42.626;23.382;2023-04-26T04:27:17;93414.72;;;9.15;100.00
10006;BME280;5042;42.626;23.382;2023-04-26T04:29:45;93407.69;;;9.08;100.00
10006;BME280;5042;42.626;23.382;2023-04-26T04:32:14;93437.03;;;9.17;100.00
10006;BME280;5042;42.626;23.382;2023-04-26T04:34:41;93438.63;;;9.31;100.00
10006;BME280;5042;42.626;23.382;2023-04-26T04:37:09;93421.28;;;9.37;100.00
10006;BME280;5042;42.626;23.382;2023-04-26T04:39:36;93427.91;;;9.46;100.00
10006;BME280;5042;42.626;23.382;2023-04-26T04:42:03;93430.69;;;9.58;100.00
10006;BME280;5042;42.626;23.382;2023-04-26T04:44:29;93434.69;;;9.67;100.00
10006;BME280;5042;42.626;23.382;2023-04-26T04:46:57;93428.53;;;9.42;100.00
10006;BME280;5042;42.626;23.382;2023-04-26T04:49:25;93428.78;;;9.27;100.00
10006;BME280;5042;42.626;23.382;2023-04-26T04:51:51;93433.56;;;9.43;100.00
10006;BME280;5042;42.626;23.382;2023-04-26T04:54:18;93433.72;;;9.68;100.00
10006;BME280;5042;42.626;23.382;2023-04-26T04:56:45;93431.41;;;9.92;100.00
10006;BME280;5042;42.626;23.382;2023-04-26T04:59:12;93438.84;;;9.95;100.00
10006;BME280;5042;42.626;23.382;2023-04-26T05:01:39;93433.34;;;10.03;100.00
10006;BME280;5042;42.626;23.382;2023-04-26T05:04:06;93445.13;;;10.26;100.00
10006;BME280;5042;42.626;23.382;2023-04-26T05:06:34;93439.16;;;10.50;100.00
10006;BME280;5042;42.626;23.382;2023-04-26T05:09:01;93441.78;;;10.82;100.00
10006;BME280;5042;42.626;23.382;2023-04-26T05:11:30;93409.22;;;10.65;100.00
10006;BME280;5042;42.626;23.382;2023-04-26T05:13:57;93437.91;;;11.10;100.00
10006;BME280;5042;42.626;23.382;2023-04-26T05:16:24;93439.09;;;11.14;100.00
10006;BME280;5042;42.626;23.382;2023-04-26T05:18:51;93445.38;;;11.31;100.00
10006;BME280;5042;42.626;23.382;2023-04-26T05:21:17;93455.75;;;11.44;100.00
10006;BME280;5042;42.626;23.382;2023-04-26T05:23:46;93441.97;;;11.31;100.00
10006;BME280;5042;42.626;23.382;2023-04-26T05:26:14;93448.28;;;11.23;100.00
10006;BME280;5042;42.626;23.382;2023-04-26T05:28:41;93438.25;;;11.38;100.00
10006;BME280;5042;42.626;23.382;2023-04-26T05:31:08;93438.72;;;11.72;100.00
10006;BME280;5042;42.626;23.382;2023-04-26T05:33:35;93449.22;;;11.72;100.00
10006;BME280;5042;42.626;23.382;2023-04-26T05:36:02;93447.34;;;11.79;100.00
10006;BME280;5042;42.626;23.382;2023-04-26T05:38:29;93450.28;;;11.90;100.00
10006;BME280;5042;42.626;23.382;2023-04-26T05:40:57;93456.25;;;11.97;100.00
10006;BME280;5042;42.626;23.382;2023-04-26T05:43:24;93459.88;;;12.14;100.00
10006;BME280;5042;42.626;23.382;2023-04-26T05:45:51;93448.28;;;12.34;100.00
10006;BME280;5042;42.626;23.382;2023-04-26T05:48:20;93431.94;;;12.20;100.00
10006;BME280;5042;42.626;23.382;2023-04-26T05:50:47;93453.50;;;12.52;100.00
10006;BME280;5042;42.626;23.382;2023-04-26T05:53:13;93467.41;;;12.71;100.00
10006;BME280;5042;42.626;23.382;2023-04-26T05:55:40;93456.97;;;12.64;100.00
10006;BME280;5042;42.626;23.382;2023-04-26T05:58:09;93454.56;;;12.51;100.00
10006;BME280;5042;42.626;23.382;2023-04-26T06:00:36;93406.28;;;12.03;100.00
10006;BME280;5042;42.626;23.382;2023-04-26T06:03:03;93449.22;;;12.27;100.00
10006;BME280;5042;42.626;23.382;2023-04-26T06:05:30;93434.94;;;12.05;100.00
10006;BME280;5042;42.626;23.382;2023-04-26T06:07:57;93444.91;;;12.45;100.00
10006;BME280;5042;42.626;23.382;2023-04-26T06:10:24;93456.38;;;12.92;100.00
10006;BME280;5042;42.626;23.382;2023-04-26T06:12:51;93452.81;;;13.29;100.00
10006;BME280;5042;42.626;23.382;2023-04-26T06:15:19;93449.91;;;13.66;100.00
10006;BME280;5042;42.626;23.382;2023-04-26T06:17:46;93447.47;;;14.28;100.00
10006;BME280;5042;42.626;23.382;2023-04-26T06:20:12;93453.72;;;14.79;100.00
10006;BME280;5042;42.626;23.382;2023-04-26T06:22:39;93453.50;;;14.98;100.00
10006;BME280;5042;42.626;23.382;2023-04-26T06:25:07;93456.31;;;15.42;100.00
10006;BME280;5042;42.626;23.382;2023-04-26T06:27:33;93451.88;;;15.64;100.00
10006;BME280;5042;42.626;23.382;2023-04-26T06:30:00;93446.34;;;15.83;100.00
10006;BME280;5042;42.626;23.382;2023-04-26T06:32:29;93453.16;;;15.79;100.00
10006;BME280;5042;42.626;23.382;2023-04-26T06:34:56;93451.94;;;15.69;100.00
10006;BME280;5042;42.626;23.382;2023-04-26T06:37:22;93438.63;;;15.98;100.00
10006;BME280;5042;42.626;23.382;2023-04-26T06:39:49;93457.31;;;16.14;100.00
10006;BME280;5042;42.626;23.382;2023-04-26T06:42:16;93460.00;;;15.97;100.00
10006;BME280;5042;42.626;23.382;2023-04-26T06:44:43;93459.81;;;15.64;100.00
10006;BME280;5042;42.626;23.382;2023-04-26T06:47:09;93448.47;;;15.13;100.00
10006;BME280;5042;42.626;23.382;2023-04-26T06:49:38;93463.69;;;14.60;97.47
10006;BME280;5042;42.626;23.382;2023-04-26T06:52:05;93433.16;;;13.95;100.00
10006;BME280;5042;42.626;23.382;2023-04-26T06:54:32;93454.28;;;13.72;100.00
10006;BME280;5042;42.626;23.382;2023-04-26T06:56:59;93455.72;;;13.09;100.00
10006;BME280;5042;42.626;23.382;2023-04-26T06:59:26;93461.41;;;12.52;100.00
10006;BME280;5042;42.626;23.382;2023-04-26T07:01:53;93455.56;;;12.50;100.00
10006;BME280;5042;42.626;23.382;2023-04-26T07:04:20;93458.00;;;12.33;100.00
10006;BME280;5042;42.626;23.382;2023-04-26T07:06:48;93450.72;;;12.35;100.00
10006;BME280;5042;42.626;23.382;2023-04-26T07:09:15;93459.06;;;12.74;100.00
10006;BME280;5042;42.626;23.382;2023-04-26T07:11:44;93460.53;;;13.24;100.00
10006;BME280;5042;42.626;23.382;2023-04-26T07:14:11;93466.66;;;13.60;100.00
10006;BME280;5042;42.626;23.382;2023-04-26T07:16:38;93470.66;;;13.74;100.00
10006;BME280;5042;42.626;23.382;2023-04-26T07:19:05;93464.78;;;13.95;100.00
10006;BME280;5042;42.626;23.382;2023-04-26T07:21:32;93472.38;;;14.20;100.00
10006;BME280;5042;42.626;23.382;2023-04-26T07:24:00;93466.47;;;14.42;96.26
10006;BME280;5042;42.626;23.382;2023-04-26T07:26:26;93475.56;;;14.92;89.73
10006;BME280;5042;42.626;23.382;2023-04-26T07:28:54;93462.88;;;15.05;96.96
10006;BME280;5042;42.626;23.382;2023-04-26T07:31:21;93473.59;;;15.66;94.56
10006;BME280;5042;42.626;23.382;2023-04-26T07:33:47;93473.03;;;15.64;81.36
10006;BME280;5042;42.626;23.382;2023-04-26T07:36:14;93474.97;;;15.35;75.74
10006;BME280;5042;42.626;23.382;2023-04-26T07:38:41;93476.16;;;15.27;82.85
10006;BME280;5042;42.626;23.382;2023-04-26T07:41:09;93476.56;;;15.70;80.53
10006;BME280;5042;42.626;23.382;2023-04-26T07:43:37;93472.25;;;16.25;84.63
10006;BME280;5042;42.626;23.382;2023-04-26T07:46:04;93475.84;;;16.63;75.17
10006;BME280;5042;42.626;23.382;2023-04-26T07:48:30;93484.50;;;17.02;75.27
10006;BME280;5042;42.626;23.382;2023-04-26T07:51:06;93481.72;;;17.19;71.00
10006;BME280;5042;42.626;23.382;2023-04-26T07:53:33;93485.41;;;16.64;68.70
10006;BME280;5042;42.626;23.382;2023-04-26T07:56:00;93492.59;;;16.02;63.40
10006;BME280;5042;42.626;23.382;2023-04-26T07:58:28;93505.13;;;15.56;70.47
10006;BME280;5042;42.626;23.382;2023-04-26T08:00:57;93494.41;;;15.29;72.95
10006;BME280;5042;42.626;23.382;2023-04-26T08:03:24;93492.19;;;15.38;73.76
10006;BME280;5042;42.626;23.382;2023-04-26T08:05:51;93489.44;;;15.66;75.04
10006;BME280;5042;42.626;23.382;2023-04-26T08:08:19;93499.81;;;15.56;74.04
10006;BME280;5042;42.626;23.382;2023-04-26T08:10:46;93499.50;;;15.86;75.60
10006;BME280;5042;42.626;23.382;2023-04-26T08:13:13;93495.59;;;16.11;69.70
10006;BME280;5042;42.626;23.382;2023-04-26T08:15:41;93490.88;;;16.13;70.12
10006;BME280;5042;42.626;23.382;2023-04-26T08:18:08;93508.47;;;15.35;67.49
10006;BME280;5042;42.626;23.382;2023-04-26T08:20:34;93493.38;;;14.84;67.90
10006;BME280;5042;42.626;23.382;2023-04-26T08:23:01;93496.41;;;14.36;72.18
10006;BME280;5042;42.626;23.382;2023-04-26T08:25:28;93488.13;;;14.04;79.61
10006;BME280;5042;42.626;23.382;2023-04-26T08:27:55;93487.66;;;14.07;83.96
10006;BME280;5042;42.626;23.382;2023-04-26T08:30:22;93491.53;;;14.16;81.10
10006;BME280;5042;42.626;23.382;2023-04-26T08:32:50;93489.25;;;14.08;84.43
10006;BME280;5042;42.626;23.382;2023-04-26T08:35:17;93487.47;;;13.85;85.32
10006;BME280;5042;42.626;23.382;2023-04-26T08:37:44;93499.25;;;13.70;84.57
10006;BME280;5042;42.626;23.382;2023-04-26T08:40:10;93482.78;;;13.51;89.34
10006;BME280;5042;42.626;23.382;2023-04-26T08:42:39;93482.31;;;13.31;91.99
10006;BME280;5042;42.626;23.382;2023-04-26T08:45:08;93484.16;;;12.88;91.74
10006;BME280;5042;42.626;23.382;2023-04-26T08:47:39;93477.34;;;12.69;93.59
10006;BME280;5042;42.626;23.382;2023-04-26T08:50:11;93492.72;;;12.84;94.85
10006;BME280;5042;42.626;23.382;2023-04-26T08:52:39;93480.41;;;12.96;98.28
10006;BME280;5042;42.626;23.382;2023-04-26T08:55:07;93489.19;;;13.32;94.95
10006;BME280;5042;42.626;23.382;2023-04-26T08:57:35;93491.84;;;13.55;96.11
10006;BME280;5042;42.626;23.382;2023-04-26T09:00:02;93485.53;;;13.68;89.93
10006;BME280;5042;42.626;23.382;2023-04-26T09:02:31;93499.03;;;13.72;90.36
10006;BME280;5042;42.626;23.382;2023-04-26T09:04:59;93500.63;;;13.73;91.06
10006;BME280;5042;42.626;23.382;2023-04-26T09:07:30;93505.00;;;13.67;84.28
10006;BME280;5042;42.626;23.382;2023-04-26T09:09:58;93511.75;;;13.75;86.96
10006;BME280;5042;42.626;23.382;2023-04-26T09:12:25;93515.19;;;13.64;88.42
10006;BME280;5042;42.626;23.382;2023-04-26T09:14:52;93507.84;;;13.42;90.61
10006;BME280;5042;42.626;23.382;2023-04-26T09:17:26;93513.00;;;13.49;86.76
10006;BME280;5042;42.626;23.382;2023-04-26T09:19:52;93508.41;;;13.44;89.24
10006;BME280;5042;42.626;23.382;2023-04-26T09:22:35;93512.91;;;13.55;87.80
10006;BME280;5042;42.626;23.382;2023-04-26T09:25:04;93509.22;;;13.45;84.48
10006;BME280;5042;42.626;23.382;2023-04-26T09:27:36;93503.63;;;13.41;88.82
10006;BME280;5042;42.626;23.382;2023-04-26T09:30:06;93508.97;;;13.34;85.32
10006;BME280;5042;42.626;23.382;2023-04-26T09:32:51;93510.31;;;13.25;87.15
10006;BME280;5042;42.626;23.382;2023-04-26T09:35:27;93508.41;;;13.44;92.62
10006;BME280;5042;42.626;23.382;2023-04-26T09:37:57;93492.28;;;13.52;88.57
10006;BME280;5042;42.626;23.382;2023-04-26T09:40:26;93505.56;;;13.69;89.71
10006;BME280;5042;42.626;23.382;2023-04-26T09:42:57;93504.88;;;13.74;89.69
10006;BME280;5042;42.626;23.382;2023-04-26T09:45:25;93454.88;;;13.50;89.14
10006;BME280;5042;42.626;23.382;2023-04-26T09:47:52;93470.41;;;13.75;87.75
10006;BME280;5042;42.626;23.382;2023-04-26T09:50:27;93503.72;;;13.93;83.89
10006;BME280;5042;42.626;23.382;2023-04-26T09:52:54;93505.31;;;13.94;82.76
10006;BME280;5042;42.626;23.382;2023-04-26T09:55:31;93500.03;;;13.94;85.86
10006;BME280;5042;42.626;23.382;2023-04-26T09:57:57;93506.34;;;14.05;82.23
10006;BME280;5042;42.626;23.382;2023-04-26T10:00:25;93508.97;;;14.17;83.17
10006;BME280;5042;42.626;23.382;2023-04-26T10:02:53;93493.16;;;14.17;84.46
10006;BME280;5042;42.626;23.382;2023-04-26T10:05:21;93514.44;;;14.27;77.00
10006;BME280;5042;42.626;23.382;2023-04-26T10:07:48;93493.09;;;14.40;78.07
10006;BME280;5042;42.626;23.382;2023-04-26T10:10:17;93473.59;;;14.41;79.05
10006;BME280;5042;42.626;23.382;2023-04-26T10:12:47;93498.72;;;14.73;74.63
10006;BME280;5042;42.626;23.382;2023-04-26T10:15:14;93496.41;;;14.76;74.57
10006;BME280;5042;42.626;23.382;2023-04-26T10:17:41;93498.41;;;14.69;73.75
10006;BME280;5042;42.626;23.382;2023-04-26T10:20:11;93496.53;;;14.98;75.75
10006;BME280;5042;42.626;23.382;2023-04-26T10:22:43;93497.69;;;15.19;71.55
10006;BME280;5042;42.626;23.382;2023-04-26T10:25:10;93483.13;;;15.34;71.70
10006;BME280;5042;42.626;23.382;2023-04-26T10:27:49;93494.00;;;15.20;68.15
10006;BME280;5042;42.626;23.382;2023-04-26T10:30:17;93458.34;;;14.72;67.61
10006;BME280;5042;42.626;23.382;2023-04-26T10:33:15;93483.13;;;14.71;72.02
10006;BME280;5042;42.626;23.382;2023-04-26T10:36:16;93488.28;;;14.66;71.82
10006;BME280;5042;42.626;23.382;2023-04-26T10:39:18;93490.53;;;14.57;71.29
10006;BME280;5042;42.626;23.382;2023-04-26T10:41:46;93487.53;;;14.54;67.73
10006;BME280;5042;42.626;23.382;2023-04-26T10:44:47;93482.84;;;14.44;68.35
10006;BME280;5042;42.626;23.382;2023-04-26T10:47:33;93486.47;;;14.26;69.72
10006;BME280;5042;42.626;23.382;2023-04-26T10:50:03;93494.94;;;14.16;68.99
10006;BME280;5042;42.626;23.382;2023-04-26T10:52:30;93482.94;;;14.09;69.57
10006;BME280;5042;42.626;23.382;2023-04-26T10:54:57;93480.78;;;14.06;74.98
10006;BME280;5042;42.626;23.382;2023-04-26T10:57:45;93476.38;;;14.23;72.23
10006;BME280;5042;42.626;23.382;2023-04-26T11:00:27;93486.66;;;14.36;72.49
10006;BME280;5042;42.626;23.382;2023-04-26T11:03:01;93484.78;;;14.49;71.29
10006;BME280;5042;42.626;23.382;2023-04-26T11:05:33;93484.00;;;14.48;65.06
10006;BME280;5042;42.626;23.382;2023-04-26T11:08:04;93481.09;;;14.50;65.90
10006;BME280;5042;42.626;23.382;2023-04-26T11:10:32;93467.59;;;14.58;70.43
10006;BME280;5042;42.626;23.382;2023-04-26T11:13:00;93479.09;;;14.69;68.11
10006;BME280;5042;42.626;23.382;2023-04-26T11:15:29;93489.44;;;14.70;63.54
10006;BME280;5042;42.626;23.382;2023-04-26T11:17:56;93471.72;;;14.54;62.97
10006;BME280;5042;42.626;23.382;2023-04-26T11:20:27;93480.88;;;14.51;62.81
10006;BME280;5042;42.626;23.382;2023-04-26T11:22:54;93480.88;;;14.63;63.92
10006;BME280;5042;42.626;23.382;2023-04-26T11:25:23;93485.25;;;14.46;62.46
10006;BME280;5042;42.626;23.382;2023-04-26T11:27:50;93481.09;;;14.50;63.27
10006;BME280;5042;42.626;23.382;2023-04-26T11:30:17;93479.41;;;14.43;63.50
10006;BME280;5042;42.626;23.382;2023-04-26T11:32:46;93491.56;;;14.45;63.76
10006;BME280;5042;42.626;23.382;2023-04-26T11:35:14;93488.72;;;14.34;64.08
10006;BME280;5042;42.626;23.382;2023-04-26T11:37:41;93429.94;;;13.93;61.07
10006;BME280;5042;42.626;23.382;2023-04-26T11:40:11;93494.28;;;14.50;61.49
10006;BME280;5042;42.626;23.382;2023-04-26T11:42:38;93486.31;;;14.73;59.49
10006;BME280;5042;42.626;23.382;2023-04-26T11:45:07;93481.31;;;14.89;62.88
10006;BME280;5042;42.626;23.382;2023-04-26T11:47:34;93490.56;;;15.20;63.60
10006;BME280;5042;42.626;23.382;2023-04-26T11:50:03;93489.75;;;15.19;59.47
10006;BME280;5042;42.626;23.382;2023-04-26T11:52:29;93481.56;;;15.04;60.34
10006;BME280;5042;42.626;23.382;2023-04-26T11:55:03;93496.13;;;15.06;58.20
10006;BME280;5042;42.626;23.382;2023-04-26T11:57:32;93491.09;;;14.88;56.34
10006;BME280;5042;42.626;23.382;2023-04-26T12:00:12;93477.53;;;14.68;55.08
10006;BME280;5042;42.626;23.382;2023-04-26T12:02:43;93473.03;;;14.68;56.70
10006;BME280;5042;42.626;23.382;2023-04-26T12:05:19;93485.50;;;15.01;57.67
10006;BME280;5042;42.626;23.382;2023-04-26T12:07:48;93482.69;;;15.08;58.95
10006;BME280;5042;42.626;23.382;2023-04-26T12:10:16;93464.22;;;15.08;58.51
10006;BME280;5042;42.626;23.382;2023-04-26T12:12:46;93430.25;;;15.12;56.50
10006;BME280;5042;42.626;23.382;2023-04-26T12:15:14;93462.06;;;15.56;57.75
10006;BME280;5042;42.626;23.382;2023-04-26T12:17:51;93474.03;;;15.63;54.32
10006;BME280;5042;42.626;23.382;2023-04-26T12:20:26;93425.41;;;15.25;57.23
10006;BME280;5042;42.626;23.382;2023-04-26T12:22:57;93465.19;;;15.53;57.73
10006;BME280;5042;42.626;23.382;2023-04-26T12:25:24;93469.34;;;15.48;57.13
10006;BME280;5042;42.626;23.382;2023-04-26T12:27:51;93470.84;;;15.44;57.38
10006;BME280;5042;42.626;23.382;2023-04-26T12:30:18;93471.13;;;15.43;55.37
10006;BME280;5042;42.626;23.382;2023-04-26T12:32:46;93461.78;;;15.35;57.23
10006;BME280;5042;42.626;23.382;2023-04-26T12:35:13;93466.72;;;15.32;59.23
10006;BME280;5042;42.626;23.382;2023-04-26T12:37:41;93472.56;;;15.34;56.67
10006;BME280;5042;42.626;23.382;2023-04-26T12:40:09;93465.50;;;15.39;55.75
10006;BME280;5042;42.626;23.382;2023-04-26T12:42:36;93460.47;;;15.38;55.26
10006;BME280;5042;42.626;23.382;2023-04-26T12:45:03;93455.44;;;15.19;55.25
10006;BME280;5042;42.626;23.382;2023-04-26T12:47:30;93459.94;;;15.19;55.86
10006;BME280;5042;42.626;23.382;2023-04-26T12:49:57;93469.28;;;15.10;55.49
10006;BME280;5042;42.626;23.382;2023-04-26T12:52:25;93467.91;;;15.07;56.25
10006;BME280;5042;42.626;23.382;2023-04-26T12:54:53;93470.56;;;15.07;55.21
10006;BME280;5042;42.626;23.382;2023-04-26T12:57:20;93468.94;;;15.06;55.89
10006;BME280;5042;42.626;23.382;2023-04-26T12:59:47;93464.94;;;15.20;56.82
10006;BME280;5042;42.626;23.382;2023-04-26T13:02:14;93443.59;;;14.88;58.67
10006;BME280;5042;42.626;23.382;2023-04-26T13:04:41;93461.34;;;15.26;56.96